sensor_id;sensor_type;location;lat;lon;timestamp;temperature;humidity
11650;DHT22;5881;48.522;7.682;2023-09-08T00:00:49;19.20;1.00
11650;DHT22;5881;48.522;7.682;2023-09-08T00:03:15;19.10;1.00
11650;DHT22;5881;48.522;7.682;2023-09-08T00:05:41;19.10;99.90
11650;DHT22;5881;48.522;7.682;2023-09-08T00:08:06;19.10;1.00
11650;DHT22;5881;48.522;7.682;2023-09-08T00:10:32;19.10;99.90
11650;DHT22;5881;48.522;7.682;2023-09-08T00:12:57;19.00;1.00
11650;DHT22;5881;48.522;7.682;2023-09-08T00:15:23;19.00;99.90
11650;DHT22;5881;48.522;7.682;2023-09-08T00:17:49;18.90;16.10
11650;DHT22;5881;48.522;7.682;2023-09-08T00:20:14;19.00;99.90
11650;DHT22;5881;48.522;7.682;2023-09-08T00:22:40;18.90;1.00
11650;DHT22;5881;48.522;7.682;2023-09-08T00:25:06;18.90;99.90
11650;DHT22;5881;48.522;7.682;2023-09-08T00:27:32;18.80;1.00
11650;DHT22;5881;48.522;7.682;2023-09-08T00:29:58;18.90;99.90
11650;DHT22;5881;48.522;7.682;2023-09-08T00:32:23;18.90;1.00
11650;DHT22;5881;48.522;7.682;2023-09-08T00:34:49;18.80;50.80
11650;DHT22;5881;48.522;7.682;2023-09-08T00:37:15;18.80;99.90
11650;DHT22;5881;48.522;7.682;2023-09-08T00:39:40;18.60;1.00
11650;DHT22;5881;48.522;7.682;2023-09-08T00:42:06;18.60;1.00
11650;DHT22;5881;48.522;7.682;2023-09-08T00:44:35;18.50;1.00
11650;DHT22;5881;48.522;7.682;2023-09-08T00:47:00;18.40;99.90
11650;DHT22;5881;48.522;7.682;2023-09-08T00:49:26;18.30;1.00
11650;DHT22;5881;48.522;7.682;2023-09-08T00:51:52;18.40;99.90
11650;DHT22;5881;48.522;7.682;2023-09-08T00:54:18;18.30;1.00
11650;DHT22;5881;48.522;7.682;2023-09-08T00:56:44;18.30;36.30
11650;DHT22;5881;48.522;7.682;2023-09-08T00:59:12;18.40;1.00
11650;DHT22;5881;48.522;7.682;2023-09-08T01:01:37;18.30;1.00
11650;DHT22;5881;48.522;7.682;2023-09-08T01:04:03;18.30;99.90
11650;DHT22;5881;48.522;7.682;2023-09-08T01:06:29;18.40;99.90
11650;DHT22;5881;48.522;7.682;2023-09-08T01:08:55;18.30;1.00
11650;DHT22;5881;48.522;7.682;2023-09-08T01:11:21;18.30;99.90
11650;DHT22;5881;48.522;7.682;2023-09-08T01:13:47;18.30;1.00
11650;DHT22;5881;48.522;7.682;2023-09-08T01:16:13;18.20;1.00
11650;DHT22;5881;48.522;7.682;2023-09-08T01:18:39;18.20;1.00
11650;DHT22;5881;48.522;7.682;2023-09-08T01:26:53;18.20;99.90
11650;DHT22;5881;48.522;7.682;2023-09-08T01:29:19;18.20;99.90
11650;DHT22;5881;48.522;7.682;2023-09-08T01:31:45;18.20;99.90
11650;DHT22;5881;48.522;7.682;2023-09-08T01:34:13;18.20;99.90
11650;DHT22;5881;48.522;7.682;2023-09-08T01:36:39;18.10;99.90
11650;DHT22;5881;48.522;7.682;2023-09-08T01:39:04;18.10;99.90
11650;DHT22;5881;48.522;7.682;2023-09-08T01:41:30;18.00;1.00
11650;DHT22;5881;48.522;7.682;2023-09-08T01:43:57;18.00;1.00
11650;DHT22;5881;48.522;7.682;2023-09-08T01:46:23;18.00;1.00
11650;DHT22;5881;48.522;7.682;2023-09-08T01:48:49;17.90;1.00
11650;DHT22;5881;48.522;7.682;2023-09-08T01:51:14;17.90;1.00
11650;DHT22;5881;48.522;7.682;2023-09-08T01:53:40;17.90;1.00
11650;DHT22;5881;48.522;7.682;2023-09-08T01:56:07;17.80;1.00
11650;DHT22;5881;48.522;7.682;2023-09-08T01:58:33;17.80;1.00
11650;DHT22;5881;48.522;7.682;2023-09-08T02:00:59;17.80;1.00
11650;DHT22;5881;48.522;7.682;2023-09-08T02:03:34;17.70;1.00
11650;DHT22;5881;48.522;7.682;2023-09-08T02:05:59;17.80;1.00
11650;DHT22;5881;48.522;7.682;2023-09-08T02:08:25;17.70;1.00
11650;DHT22;5881;48.522;7.682;2023-09-08T02:10:50;17.70;1.00
11650;DHT22;5881;48.522;7.682;2023-09-08T02:13:16;17.70;1.00
11650;DHT22;5881;48.522;7.682;2023-09-08T02:15:42;17.60;1.00
11650;DHT22;5881;48.522;7.682;2023-09-08T02:18:08;17.70;1.00
11650;DHT22;5881;48.522;7.682;2023-09-08T02:20:34;17.60;1.00
11650;DHT22;5881;48.522;7.682;2023-09-08T02:23:05;17.70;1.00
11650;DHT22;5881;48.522;7.682;2023-09-08T02:25:31;17.60;1.00
11650;DHT22;5881;48.522;7.682;2023-09-08T02:27:56;17.60;1.00
11650;DHT22;5881;48.522;7.682;2023-09-08T02:30:22;17.60;1.00
11650;DHT22;5881;48.522;7.682;2023-09-08T02:32:47;17.60;1.00
11650;DHT22;5881;48.522;7.682;2023-09-08T02:35:13;17.50;1.00
11650;DHT22;5881;48.522;7.682;2023-09-08T02:37:39;17.50;1.00
11650;DHT22;5881;48.522;7.682;2023-09-08T02:40:06;17.50;1.00
11650;DHT22;5881;48.522;7.682;2023-09-08T02:42:32;17.50;1.00
11650;DHT22;5881;48.522;7.682;2023-09-08T02:44:57;17.50;1.00
11650;DHT22;5881;48.522;7.682;2023-09-08T02:47:23;17.50;1.00
11650;DHT22;5881;48.522;7.682;2023-09-08T02:49:48;17.40;1.00
11650;DHT22;5881;48.522;7.682;2023-09-08T02:52:14;17.40;1.00
11650;DHT22;5881;48.522;7.682;2023-09-08T02:54:40;17.40;1.00
11650;DHT22;5881;48.522;7.682;2023-09-08T02:57:05;17.40;1.00
11650;DHT22;5881;48.522;7.682;2023-09-08T02:59:31;17.40;1.00
11650;DHT22;5881;48.522;7.682;2023-09-08T03:01:56;17.40;1.00
11650;DHT22;5881;48.522;7.682;2023-09-08T03:04:22;17.40;1.00
11650;DHT22;5881;48.522;7.682;2023-09-08T03:06:47;17.40;1.00
11650;DHT22;5881;48.522;7.682;2023-09-08T03:09:13;17.40;1.00
11650;DHT22;5881;48.522;7.682;2023-09-08T03:11:39;17.30;1.00
11650;DHT22;5881;48.522;7.682;2023-09-08T03:14:04;17.30;54.00
11650;DHT22;5881;48.522;7.682;2023-09-08T03:16:30;17.30;31.10
11650;DHT22;5881;48.522;7.682;2023-09-08T03:18:55;17.40;1.00
11650;DHT22;5881;48.522;7.682;2023-09-08T03:21:21;17.30;1.00
11650;DHT22;5881;48.522;7.682;2023-09-08T03:23:47;17.30;1.00
11650;DHT22;5881;48.522;7.682;2023-09-08T03:26:12;17.30;1.00
11650;DHT22;5881;48.522;7.682;2023-09-08T03:28:38;17.30;1.00
11650;DHT22;5881;48.522;7.682;2023-09-08T03:31:05;17.20;1.00
11650;DHT22;5881;48.522;7.682;2023-09-08T03:33:31;17.10;1.00
11650;DHT22;5881;48.522;7.682;2023-09-08T03:35:56;17.10;1.00
11650;DHT22;5881;48.522;7.682;2023-09-08T03:38:23;17.00;1.00
11650;DHT22;5881;48.522;7.682;2023-09-08T03:40:48;17.10;1.00
11650;DHT22;5881;48.522;7.682;2023-09-08T03:43:14;17.10;6.80
11650;DHT22;5881;48.522;7.682;2023-09-08T03:45:40;17.10;1.00
11650;DHT22;5881;48.522;7.682;2023-09-08T03:48:06;17.10;18.40
11650;DHT22;5881;48.522;7.682;2023-09-08T03:50:31;17.00;74.10
11650;DHT22;5881;48.522;7.682;2023-09-08T03:52:57;17.20;99.90
11650;DHT22;5881;48.522;7.682;2023-09-08T03:55:23;17.20;29.90
11650;DHT22;5881;48.522;7.682;2023-09-08T03:57:48;17.10;99.90
11650;DHT22;5881;48.522;7.682;2023-09-08T04:00:14;17.10;99.90
11650;DHT22;5881;48.522;7.682;2023-09-08T04:02:50;17.00;99.90
11650;DHT22;5881;48.522;7.682;2023-09-08T04:05:17;17.00;99.90
11650;DHT22;5881;48.522;7.682;2023-09-08T04:07:43;17.00;99.90
11650;DHT22;5881;48.522;7.682;2023-09-08T04:10:09;17.00;99.90
11650;DHT22;5881;48.522;7.682;2023-09-08T04:12:34;17.10;78.70
11650;DHT22;5881;48.522;7.682;2023-09-08T04:15:00;17.00;4.30
11650;DHT22;5881;48.522;7.682;2023-09-08T04:17:26;16.90;8.20
11650;DHT22;5881;48.522;7.682;2023-09-08T04:19:51;16.90;1.00
11650;DHT22;5881;48.522;7.682;2023-09-08T04:22:17;16.80;1.00
11650;DHT22;5881;48.522;7.682;2023-09-08T04:24:42;16.80;1.00
11650;DHT22;5881;48.522;7.682;2023-09-08T04:27:08;16.70;1.00
11650;DHT22;5881;48.522;7.682;2023-09-08T04:29:36;16.70;99.90
11650;DHT22;5881;48.522;7.682;2023-09-08T04:32:01;16.60;15.70
11650;DHT22;5881;48.522;7.682;2023-09-08T04:34:40;16.60;99.90
11650;DHT22;5881;48.522;7.682;2023-09-08T04:37:06;16.60;94.50
11650;DHT22;5881;48.522;7.682;2023-09-08T04:39:33;16.60;99.90
11650;DHT22;5881;48.522;7.682;2023-09-08T04:41:59;16.60;99.90
11650;DHT22;5881;48.522;7.682;2023-09-08T04:44:24;16.50;99.90
11650;DHT22;5881;48.522;7.682;2023-09-08T04:46:51;16.50;99.90
11650;DHT22;5881;48.522;7.682;2023-09-08T04:49:16;16.50;99.90
11650;DHT22;5881;48.522;7.682;2023-09-08T04:51:43;16.50;99.90
11650;DHT22;5881;48.522;7.682;2023-09-08T04:54:09;16.50;99.90
11650;DHT22;5881;48.522;7.682;2023-09-08T04:56:34;16.50;99.90
11650;DHT22;5881;48.522;7.682;2023-09-08T04:59:00;16.60;99.90
11650;DHT22;5881;48.522;7.682;2023-09-08T05:01:26;16.60;99.90
11650;DHT22;5881;48.522;7.682;2023-09-08T05:03:52;16.60;99.90
11650;DHT22;5881;48.522;7.682;2023-09-08T05:06:18;16.50;99.90
11650;DHT22;5881;48.522;7.682;2023-09-08T05:08:43;16.60;99.90
11650;DHT22;5881;48.522;7.682;2023-09-08T05:11:10;16.60;99.90
11650;DHT22;5881;48.522;7.682;2023-09-08T05:13:35;16.70;99.90
11650;DHT22;5881;48.522;7.682;2023-09-08T05:16:01;16.60;53.30
11650;DHT22;5881;48.522;7.682;2023-09-08T05:18:37;16.60;1.00
11650;DHT22;5881;48.522;7.682;2023-09-08T05:21:02;16.70;23.20
11650;DHT22;5881;48.522;7.682;2023-09-08T05:23:28;16.80;1.00
11650;DHT22;5881;48.522;7.682;2023-09-08T05:25:54;16.80;1.00
11650;DHT22;5881;48.522;7.682;2023-09-08T05:28:20;16.80;1.00
11650;DHT22;5881;48.522;7.682;2023-09-08T05:30:46;16.80;1.00
11650;DHT22;5881;48.522;7.682;2023-09-08T05:33:11;16.90;1.00
11650;DHT22;5881;48.522;7.682;2023-09-08T05:35:37;17.00;1.00
11650;DHT22;5881;48.522;7.682;2023-09-08T05:38:02;17.00;1.00
11650;DHT22;5881;48.522;7.682;2023-09-08T05:40:28;17.10;99.90
11650;DHT22;5881;48.522;7.682;2023-09-08T05:42:54;17.30;99.90
11650;DHT22;5881;48.522;7.682;2023-09-08T05:45:20;17.40;99.90
11650;DHT22;5881;48.522;7.682;2023-09-08T05:47:45;17.50;3.20
11650;DHT22;5881;48.522;7.682;2023-09-08T05:50:11;17.70;1.00
11650;DHT22;5881;48.522;7.682;2023-09-08T05:52:36;18.60;1.00
11650;DHT22;5881;48.522;7.682;2023-09-08T05:55:02;19.80;3.40
11650;DHT22;5881;48.522;7.682;2023-09-08T05:57:28;21.20;99.90
11650;DHT22;5881;48.522;7.682;2023-09-08T05:59:53;22.10;99.90
11650;DHT22;5881;48.522;7.682;2023-09-08T06:02:19;22.40;98.60
11650;DHT22;5881;48.522;7.682;2023-09-08T06:04:44;22.80;90.50
11650;DHT22;5881;48.522;7.682;2023-09-08T06:07:10;23.60;58.40
11650;DHT22;5881;48.522;7.682;2023-09-08T06:09:36;23.80;20.10
11650;DHT22;5881;48.522;7.682;2023-09-08T06:12:01;24.00;12.50
11650;DHT22;5881;48.522;7.682;2023-09-08T06:14:27;23.90;10.10
11650;DHT22;5881;48.522;7.682;2023-09-08T06:16:52;23.10;7.10
11650;DHT22;5881;48.522;7.682;2023-09-08T06:19:18;22.60;9.60
11650;DHT22;5881;48.522;7.682;2023-09-08T06:21:43;22.70;11.70
11650;DHT22;5881;48.522;7.682;2023-09-08T06:24:09;22.90;11.70
11650;DHT22;5881;48.522;7.682;2023-09-08T06:26:35;22.80;8.80
11650;DHT22;5881;48.522;7.682;2023-09-08T06:29:00;23.30;9.20
11650;DHT22;5881;48.522;7.682;2023-09-08T06:31:26;24.10;9.40
11650;DHT22;5881;48.522;7.682;2023-09-08T06:33:52;24.00;1.60
11650;DHT22;5881;48.522;7.682;2023-09-08T06:36:18;25.10;1.40
11650;DHT22;5881;48.522;7.682;2023-09-08T06:38:44;24.70;1.00
11650;DHT22;5881;48.522;7.682;2023-09-08T06:41:10;24.00;1.00
11650;DHT22;5881;48.522;7.682;2023-09-08T06:43:36;24.70;1.00
11650;DHT22;5881;48.522;7.682;2023-09-08T06:46:02;24.90;1.00
11650;DHT22;5881;48.522;7.682;2023-09-08T06:48:29;25.00;1.00
11650;DHT22;5881;48.522;7.682;2023-09-08T06:50:55;25.50;1.00
11650;DHT22;5881;48.522;7.682;2023-09-08T06:53:22;26.80;1.00
11650;DHT22;5881;48.522;7.682;2023-09-08T06:55:48;26.80;1.00
11650;DHT22;5881;48.522;7.682;2023-09-08T06:58:14;26.80;1.00
11650;DHT22;5881;48.522;7.682;2023-09-08T07:00:42;26.70;1.00
11650;DHT22;5881;48.522;7.682;2023-09-08T07:03:08;26.10;1.00
11650;DHT22;5881;48.522;7.682;2023-09-08T07:05:39;25.60;1.00
11650;DHT22;5881;48.522;7.682;2023-09-08T07:08:05;26.70;1.00
11650;DHT22;5881;48.522;7.682;2023-09-08T07:10:32;26.60;1.00
11650;DHT22;5881;48.522;7.682;2023-09-08T07:12:58;27.10;1.00
11650;DHT22;5881;48.522;7.682;2023-09-08T07:15:23;26.90;1.00
11650;DHT22;5881;48.522;7.682;2023-09-08T07:17:49;27.30;1.00
11650;DHT22;5881;48.522;7.682;2023-09-08T07:20:14;27.70;1.00
11650;DHT22;5881;48.522;7.682;2023-09-08T07:22:40;27.80;1.00
11650;DHT22;5881;48.522;7.682;2023-09-08T07:25:06;28.10;1.00
11650;DHT22;5881;48.522;7.682;2023-09-08T07:27:32;28.70;1.00
11650;DHT22;5881;48.522;7.682;2023-09-08T07:29:57;28.20;1.00
11650;DHT22;5881;48.522;7.682;2023-09-08T07:32:23;27.50;1.00
11650;DHT22;5881;48.522;7.682;2023-09-08T07:34:50;28.70;1.00
11650;DHT22;5881;48.522;7.682;2023-09-08T07:37:21;28.10;1.00
11650;DHT22;5881;48.522;7.682;2023-09-08T07:39:48;28.80;1.00
11650;DHT22;5881;48.522;7.682;2023-09-08T07:42:13;28.80;1.00
11650;DHT22;5881;48.522;7.682;2023-09-08T07:44:39;29.00;1.00
11650;DHT22;5881;48.522;7.682;2023-09-08T07:47:04;30.20;1.00
11650;DHT22;5881;48.522;7.682;2023-09-08T07:49:30;29.20;1.00
11650;DHT22;5881;48.522;7.682;2023-09-08T07:51:57;29.30;1.00
11650;DHT22;5881;48.522;7.682;2023-09-08T07:54:22;29.70;1.00
11650;DHT22;5881;48.522;7.682;2023-09-08T07:56:48;29.50;1.00
11650;DHT22;5881;48.522;7.682;2023-09-08T07:59:13;30.60;1.00
11650;DHT22;5881;48.522;7.682;2023-09-08T08:01:39;31.80;1.00
11650;DHT22;5881;48.522;7.682;2023-09-08T08:04:04;32.50;1.00
11650;DHT22;5881;48.522;7.682;2023-09-08T08:06:30;30.60;1.00
11650;DHT22;5881;48.522;7.682;2023-09-08T08:08:56;29.40;1.00
11650;DHT22;5881;48.522;7.682;2023-09-08T08:11:23;30.10;1.00
11650;DHT22;5881;48.522;7.682;2023-09-08T08:13:48;31.30;1.00
11650;DHT22;5881;48.522;7.682;2023-09-08T08:16:14;30.50;1.00
11650;DHT22;5881;48.522;7.682;2023-09-08T08:18:39;31.10;1.00
11650;DHT22;5881;48.522;7.682;2023-09-08T08:21:05;31.50;1.00
11650;DHT22;5881;48.522;7.682;2023-09-08T08:23:31;30.80;1.00
11650;DHT22;5881;48.522;7.682;2023-09-08T08:25:57;31.40;1.00
11650;DHT22;5881;48.522;7.682;2023-09-08T08:28:23;31.10;1.00
11650;DHT22;5881;48.522;7.682;2023-09-08T08:30:50;31.20;1.00
11650;DHT22;5881;48.522;7.682;2023-09-08T08:33:15;30.60;1.00
11650;DHT22;5881;48.522;7.682;2023-09-08T08:35:41;31.30;1.00
11650;DHT22;5881;48.522;7.682;2023-09-08T08:38:07;31.10;1.00
11650;DHT22;5881;48.522;7.682;2023-09-08T08:40:32;31.60;1.00
11650;DHT22;5881;48.522;7.682;2023-09-08T08:43:00;30.40;1.00
11650;DHT22;5881;48.522;7.682;2023-09-08T08:45:26;31.70;1.00
11650;DHT22;5881;48.522;7.682;2023-09-08T08:47:53;31.40;1.00
11650;DHT22;5881;48.522;7.682;2023-09-08T08:50:19;31.00;1.00
11650;DHT22;5881;48.522;7.682;2023-09-08T08:52:46;33.70;1.00
11650;DHT22;5881;48.522;7.682;2023-09-08T08:55:12;33.40;1.00
11650;DHT22;5881;48.522;7.682;2023-09-08T08:57:38;33.30;1.00
11650;DHT22;5881;48.522;7.682;2023-09-08T09:00:08;33.00;1.00
11650;DHT22;5881;48.522;7.682;2023-09-08T09:02:39;32.50;1.00
11650;DHT22;5881;48.522;7.682;2023-09-08T09:05:06;33.10;1.00
11650;DHT22;5881;48.522;7.682;2023-09-08T09:07:33;33.90;1.00
11650;DHT22;5881;48.522;7.682;2023-09-08T09:09:58;33.90;1.00
11650;DHT22;5881;48.522;7.682;2023-09-08T09:12:24;34.70;1.00
11650;DHT22;5881;48.522;7.682;2023-09-08T09:14:53;33.40;1.00
11650;DHT22;5881;48.522;7.682;2023-09-08T09:17:19;34.00;1.00
11650;DHT22;5881;48.522;7.682;2023-09-08T09:19:45;33.90;1.00
11650;DHT22;5881;48.522;7.682;2023-09-08T09:22:10;35.10;1.00
11650;DHT22;5881;48.522;7.682;2023-09-08T09:24:41;35.50;1.00
11650;DHT22;5881;48.522;7.682;2023-09-08T09:27:09;33.80;1.00
11650;DHT22;5881;48.522;7.682;2023-09-08T09:29:49;33.50;1.00
11650;DHT22;5881;48.522;7.682;2023-09-08T09:32:16;34.30;1.00
11650;DHT22;5881;48.522;7.682;2023-09-08T09:34:49;33.40;1.00
11650;DHT22;5881;48.522;7.682;2023-09-08T09:37:16;32.90;1.00
11650;DHT22;5881;48.522;7.682;2023-09-08T09:39:41;33.50;1.00
11650;DHT22;5881;48.522;7.682;2023-09-08T09:42:07;34.30;1.00
11650;DHT22;5881;48.522;7.682;2023-09-08T09:44:33;35.10;1.00
11650;DHT22;5881;48.522;7.682;2023-09-08T09:47:00;32.70;1.00
11650;DHT22;5881;48.522;7.682;2023-09-08T09:49:26;35.10;1.00
11650;DHT22;5881;48.522;7.682;2023-09-08T09:51:58;34.90;1.00
11650;DHT22;5881;48.522;7.682;2023-09-08T09:54:24;34.60;1.00
11650;DHT22;5881;48.522;7.682;2023-09-08T09:56:50;36.10;1.00
11650;DHT22;5881;48.522;7.682;2023-09-08T09:59:17;36.60;1.00
11650;DHT22;5881;48.522;7.682;2023-09-08T10:01:43;34.40;1.00
11650;DHT22;5881;48.522;7.682;2023-09-08T10:04:09;34.00;1.00
11650;DHT22;5881;48.522;7.682;2023-09-08T10:06:38;33.80;1.00
11650;DHT22;5881;48.522;7.682;2023-09-08T10:09:05;34.10;1.00
11650;DHT22;5881;48.522;7.682;2023-09-08T10:11:47;35.50;1.00
11650;DHT22;5881;48.522;7.682;2023-09-08T10:14:14;36.60;1.00
11650;DHT22;5881;48.522;7.682;2023-09-08T10:16:40;36.10;1.00
11650;DHT22;5881;48.522;7.682;2023-09-08T10:19:09;35.70;1.00
11650;DHT22;5881;48.522;7.682;2023-09-08T10:21:42;36.60;1.00
11650;DHT22;5881;48.522;7.682;2023-09-08T10:24:22;36.70;1.00
11650;DHT22;5881;48.522;7.682;2023-09-08T10:29:27;35.90;1.00
11650;DHT22;5881;48.522;7.682;2023-09-08T10:31:54;34.70;1.00
11650;DHT22;5881;48.522;7.682;2023-09-08T10:34:21;34.70;1.00
11650;DHT22;5881;48.522;7.682;2023-09-08T10:36:48;35.10;1.00
11650;DHT22;5881;48.522;7.682;2023-09-08T10:39:34;35.10;1.00
11650;DHT22;5881;48.522;7.682;2023-09-08T10:44:58;34.70;1.00
11650;DHT22;5881;48.522;7.682;2023-09-08T10:47:39;36.10;1.00
11650;DHT22;5881;48.522;7.682;2023-09-08T10:50:07;36.70;1.00
11650;DHT22;5881;48.522;7.682;2023-09-08T10:52:34;36.90;1.00
11650;DHT22;5881;48.522;7.682;2023-09-08T10:55:01;36.10;1.00
11650;DHT22;5881;48.522;7.682;2023-09-08T10:57:27;35.30;1.00
11650;DHT22;5881;48.522;7.682;2023-09-08T10:59:57;34.70;1.00
11650;DHT22;5881;48.522;7.682;2023-09-08T11:02:38;35.00;1.00
11650;DHT22;5881;48.522;7.682;2023-09-08T11:05:10;34.60;1.00
11650;DHT22;5881;48.522;7.682;2023-09-08T11:07:39;36.30;1.00
11650;DHT22;5881;48.522;7.682;2023-09-08T11:10:06;34.90;1.00
11650;DHT22;5881;48.522;7.682;2023-09-08T11:12:33;35.50;1.00
11650;DHT22;5881;48.522;7.682;2023-09-08T11:14:59;35.60;1.00
11650;DHT22;5881;48.522;7.682;2023-09-08T11:17:33;35.80;1.00
11650;DHT22;5881;48.522;7.682;2023-09-08T11:20:00;34.90;1.00
11650;DHT22;5881;48.522;7.682;2023-09-08T11:22:26;35.60;1.00
11650;DHT22;5881;48.522;7.682;2023-09-08T11:24:53;35.90;1.00
11650;DHT22;5881;48.522;7.682;2023-09-08T11:27:20;36.20;1.00
11650;DHT22;5881;48.522;7.682;2023-09-08T11:29:46;36.10;1.00
11650;DHT22;5881;48.522;7.682;2023-09-08T11:32:12;35.80;1.00
11650;DHT22;5881;48.522;7.682;2023-09-08T11:34:38;36.80;1.00
11650;DHT22;5881;48.522;7.682;2023-09-08T11:37:10;35.60;1.00
11650;DHT22;5881;48.522;7.682;2023-09-08T11:39:39;35.00;1.00
11650;DHT22;5881;48.522;7.682;2023-09-08T11:42:06;34.80;1.00
11650;DHT22;5881;48.522;7.682;2023-09-08T11:44:33;35.10;1.00
11650;DHT22;5881;48.522;7.682;2023-09-08T11:47:00;33.60;1.00
11650;DHT22;5881;48.522;7.682;2023-09-08T11:49:26;34.10;1.00
11650;DHT22;5881;48.522;7.682;2023-09-08T11:51:52;34.10;1.00
11650;DHT22;5881;48.522;7.682;2023-09-08T11:54:17;34.10;1.00
11650;DHT22;5881;48.522;7.682;2023-09-08T11:56:44;34.60;1.00
11650;DHT22;5881;48.522;7.682;2023-09-08T11:59:12;34.50;1.00
11650;DHT22;5881;48.522;7.682;2023-09-08T12:01:38;34.40;1.00
11650;DHT22;5881;48.522;7.682;2023-09-08T12:04:03;34.10;1.00
11650;DHT22;5881;48.522;7.682;2023-09-08T12:06:29;34.20;1.00
11650;DHT22;5881;48.522;7.682;2023-09-08T12:08:56;34.50;1.00
11650;DHT22;5881;48.522;7.682;2023-09-08T12:11:33;34.40;1.00
11650;DHT22;5881;48.522;7.682;2023-09-08T12:14:01;34.00;1.00
11650;DHT22;5881;48.522;7.682;2023-09-08T12:16:26;34.00;1.00
11650;DHT22;5881;48.522;7.682;2023-09-08T12:18:52;34.10;1.00
11650;DHT22;5881;48.522;7.682;2023-09-08T12:21:17;33.90;1.00
11650;DHT22;5881;48.522;7.682;2023-09-08T12:23:50;33.60;1.00
11650;DHT22;5881;48.522;7.682;2023-09-08T12:26:17;33.60;1.00
11650;DHT22;5881;48.522;7.682;2023-09-08T12:28:43;33.40;1.00
11650;DHT22;5881;48.522;7.682;2023-09-08T12:31:15;33.70;1.00
11650;DHT22;5881;48.522;7.682;2023-09-08T12:33:42;33.60;1.00
11650;DHT22;5881;48.522;7.682;2023-09-08T12:36:18;33.30;1.00
11650;DHT22;5881;48.522;7.682;2023-09-08T12:38:48;33.20;1.00
11650;DHT22;5881;48.522;7.682;2023-09-08T12:41:15;33.30;1.00
11650;DHT22;5881;48.522;7.682;2023-09-08T12:43:41;33.60;1.00
11650;DHT22;5881;48.522;7.682;2023-09-08T12:46:06;33.30;1.00
11650;DHT22;5881;48.522;7.682;2023-09-08T12:48:32;33.30;1.00
11650;DHT22;5881;48.522;7.682;2023-09-08T12:50:58;33.30;1.00
11650;DHT22;5881;48.522;7.682;2023-09-08T12:53:23;33.20;1.00
11650;DHT22;5881;48.522;7.682;2023-09-08T12:55:49;33.20;1.00
11650;DHT22;5881;48.522;7.682;2023-09-08T12:58:16;33.10;1.00
11650;DHT22;5881;48.522;7.682;2023-09-08T13:00:43;33.20;1.00
11650;DHT22;5881;48.522;7.682;2023-09-08T13:03:09;32.80;1.00
11650;DHT22;5881;48.522;7.682;2023-09-08T13:05:35;32.90;1.00
11650;DHT22;5881;48.522;7.682;2023-09-08T13:08:01;33.10;1.00
11650;DHT22;5881;48.522;7.682;2023-09-08T13:10:26;33.10;1.00
11650;DHT22;5881;48.522;7.682;2023-09-08T13:12:52;33.00;1.00
11650;DHT22;5881;48.522;7.682;2023-09-08T13:15:18;32.90;1.00
11650;DHT22;5881;48.522;7.682;2023-09-08T13:17:43;32.80;1.00
11650;DHT22;5881;48.522;7.682;2023-09-08T13:20:09;32.70;1.00
11650;DHT22;5881;48.522;7.682;2023-09-08T13:22:35;32.80;1.00
11650;DHT22;5881;48.522;7.682;2023-09-08T13:25:01;32.70;1.00
11650;DHT22;5881;48.522;7.682;2023-09-08T13:27:26;32.50;1.00
11650;DHT22;5881;48.522;7.682;2023-09-08T13:30:08;32.40;1.00
11650;DHT22;5881;48.522;7.682;2023-09-08T13:32:34;32.50;1.00
11650;DHT22;5881;48.522;7.682;2023-09-08T13:34:59;32.60;1.00
11650;DHT22;5881;48.522;7.682;2023-09-08T13:37:25;32.60;1.00
11650;DHT22;5881;48.522;7.682;2023-09-08T13:39:51;32.20;1.00
11650;DHT22;5881;48.522;7.682;2023-09-08T13:42:17;32.10;1.00
11650;DHT22;5881;48.522;7.682;2023-09-08T13:44:42;32.30;1.00
11650;DHT22;5881;48.522;7.682;2023-09-08T13:47:08;32.50;1.00
11650;DHT22;5881;48.522;7.682;2023-09-08T13:49:33;32.40;1.00
11650;DHT22;5881;48.522;7.682;2023-09-08T13:51:59;32.50;1.00
11650;DHT22;5881;48.522;7.682;2023-09-08T13:54:26;32.10;1.00
11650;DHT22;5881;48.522;7.682;2023-09-08T13:56:59;32.10;1.00
11650;DHT22;5881;48.522;7.682;2023-09-08T13:59:29;32.00;1.00
11650;DHT22;5881;48.522;7.682;2023-09-08T14:01:56;32.20;1.00
11650;DHT22;5881;48.522;7.682;2023-09-08T14:04:23;32.10;1.00
11650;DHT22;5881;48.522;7.682;2023-09-08T14:06:49;32.20;1.00
11650;DHT22;5881;48.522;7.682;2023-09-08T14:09:15;32.20;1.00
11650;DHT22;5881;48.522;7.682;2023-09-08T14:11:41;32.20;1.00
11650;DHT22;5881;48.522;7.682;2023-09-08T14:14:06;32.10;1.00
11650;DHT22;5881;48.522;7.682;2023-09-08T14:16:32;31.80;1.00
11650;DHT22;5881;48.522;7.682;2023-09-08T14:18:57;31.50;1.00
11650;DHT22;5881;48.522;7.682;2023-09-08T14:21:23;31.80;1.00
11650;DHT22;5881;48.522;7.682;2023-09-08T14:23:49;31.90;1.00
11650;DHT22;5881;48.522;7.682;2023-09-08T14:26:14;31.90;1.00
11650;DHT22;5881;48.522;7.682;2023-09-08T14:28:40;31.90;1.00
11650;DHT22;5881;48.522;7.682;2023-09-08T14:31:06;31.90;1.00
11650;DHT22;5881;48.522;7.682;2023-09-08T14:33:31;31.90;1.00
11650;DHT22;5881;48.522;7.682;2023-09-08T14:35:57;31.90;1.00
11650;DHT22;5881;48.522;7.682;2023-09-08T14:38:23;31.90;1.00
11650;DHT22;5881;48.522;7.682;2023-09-08T14:41:00;31.60;1.00
11650;DHT22;5881;48.522;7.682;2023-09-08T14:43:27;31.40;1.00
11650;DHT22;5881;48.522;7.682;2023-09-08T14:45:53;31.30;1.00
11650;DHT22;5881;48.522;7.682;2023-09-08T14:48:19;31.30;1.00
11650;DHT22;5881;48.522;7.682;2023-09-08T14:50:45;31.50;1.00
11650;DHT22;5881;48.522;7.682;2023-09-08T14:53:11;31.30;1.00
11650;DHT22;5881;48.522;7.682;2023-09-08T14:55:36;31.40;1.00
11650;DHT22;5881;48.522;7.682;2023-09-08T14:58:02;31.40;1.00
11650;DHT22;5881;48.522;7.682;2023-09-08T15:00:28;31.50;1.00
11650;DHT22;5881;48.522;7.682;2023-09-08T15:02:54;31.30;1.00
11650;DHT22;5881;48.522;7.682;2023-09-08T15:05:19;31.30;1.00
11650;DHT22;5881;48.522;7.682;2023-09-08T15:07:45;31.20;1.00
11650;DHT22;5881;48.522;7.682;2023-09-08T15:10:11;31.10;1.00
11650;DHT22;5881;48.522;7.682;2023-09-08T15:12:36;31.10;1.00
11650;DHT22;5881;48.522;7.682;2023-09-08T15:15:03;31.10;1.00
11650;DHT22;5881;48.522;7.682;2023-09-08T15:17:29;31.00;1.00
11650;DHT22;5881;48.522;7.682;2023-09-08T15:19:55;31.00;1.00
11650;DHT22;5881;48.522;7.682;2023-09-08T15:22:20;30.90;1.00
11650;DHT22;5881;48.522;7.682;2023-09-08T15:24:46;30.80;1.00
11650;DHT22;5881;48.522;7.682;2023-09-08T15:27:11;30.90;1.00
11650;DHT22;5881;48.522;7.682;2023-09-08T15:29:37;30.80;1.00
11650;DHT22;5881;48.522;7.682;2023-09-08T15:32:03;30.80;1.00
11650;DHT22;5881;48.522;7.682;2023-09-08T15:34:28;30.80;1.00
11650;DHT22;5881;48.522;7.682;2023-09-08T15:36:54;30.90;1.00
11650;DHT22;5881;48.522;7.682;2023-09-08T15:39:20;30.80;1.00
11650;DHT22;5881;48.522;7.682;2023-09-08T15:41:46;30.80;1.00
11650;DHT22;5881;48.522;7.682;2023-09-08T15:44:12;30.60;1.00
11650;DHT22;5881;48.522;7.682;2023-09-08T15:46:39;30.70;1.00
11650;DHT22;5881;48.522;7.682;2023-09-08T15:49:05;30.70;1.00
11650;DHT22;5881;48.522;7.682;2023-09-08T15:51:30;30.60;1.00
11650;DHT22;5881;48.522;7.682;2023-09-08T15:53:56;30.60;1.00
11650;DHT22;5881;48.522;7.682;2023-09-08T15:56:22;30.50;1.00
11650;DHT22;5881;48.522;7.682;2023-09-08T15:58:47;30.40;1.00
11650;DHT22;5881;48.522;7.682;2023-09-08T16:01:13;30.40;1.00
11650;DHT22;5881;48.522;7.682;2023-09-08T16:03:39;30.40;1.00
11650;DHT22;5881;48.522;7.682;2023-09-08T16:06:04;30.30;1.00